createdAt,value
2023-02-19T00:01:42.883Z,32.90
2023-02-19T00:04:13.728Z,27.58
2023-02-19T00:06:41.163Z,25.98
2023-02-19T00:09:08.461Z,23.48
2023-02-19T00:11:36.302Z,28.23
2023-02-19T00:14:04.328Z,30.53
2023-02-19T00:16:32.645Z,30.67
2023-02-19T00:19:00.727Z,25.70
2023-02-19T00:21:28.001Z,23.33
2023-02-19T00:23:59.727Z,24.08
2023-02-19T00:26:27.081Z,27.37
2023-02-19T00:28:54.761Z,23.00
2023-02-19T00:31:33.356Z,21.17
2023-02-19T00:34:02.225Z,22.38
2023-02-19T00:36:30.496Z,22.67
2023-02-19T00:38:58.882Z,23.60
2023-02-19T00:41:26.353Z,16.85
2023-02-19T00:44:04.676Z,19.88
2023-02-19T00:46:39.221Z,19.90
2023-02-19T00:49:07.337Z,25.00
2023-02-19T00:51:35.685Z,17.67
2023-02-19T00:54:02.857Z,19.00
2023-02-19T00:56:30.076Z,18.30
2023-02-19T00:58:57.613Z,19.70
2023-02-19T01:01:24.791Z,21.45
2023-02-19T01:03:52.156Z,24.20
2023-02-19T01:06:20.009Z,13.77
2023-02-19T01:08:47.644Z,17.63
2023-02-19T01:11:14.931Z,20.75
2023-02-19T01:13:42.390Z,13.73
2023-02-19T01:16:12.406Z,21.07
2023-02-19T01:18:39.614Z,15.20
2023-02-19T01:21:15.784Z,15.43
2023-02-19T01:23:44.194Z,13.55
2023-02-19T01:26:15.867Z,13.93
2023-02-19T01:28:43.462Z,17.10
2023-02-19T01:31:14.083Z,16.35
2023-02-19T01:33:41.746Z,17.42
2023-02-19T01:36:09.205Z,14.15
2023-02-19T01:38:36.534Z,15.38
2023-02-19T01:41:05.075Z,14.33
2023-02-19T01:43:36.113Z,15.45
2023-02-19T01:46:03.341Z,11.95
2023-02-19T01:48:32.639Z,14.80
2023-02-19T01:51:04.918Z,9.75
2023-02-19T01:53:34.149Z,13.80
2023-02-19T01:56:02.232Z,13.40
2023-02-19T01:58:30.825Z,13.07
2023-02-19T02:00:58.236Z,10.85
2023-02-19T02:03:25.784Z,15.93
2023-02-19T02:06:08.435Z,11.17
2023-02-19T02:08:54.604Z,14.05
2023-02-19T02:11:22.054Z,11.63
2023-02-19T02:13:49.446Z,9.35
2023-02-19T02:16:35.553Z,10.10
2023-02-19T02:19:09.890Z,14.50
2023-02-19T02:21:46.948Z,9.32
2023-02-19T02:24:26.137Z,10.13
2023-02-19T02:27:12.041Z,12.60
2023-02-19T02:29:57.865Z,11.27
2023-02-19T02:32:31.159Z,11.87
2023-02-19T02:35:04.755Z,11.45
2023-02-19T02:37:34.162Z,11.65
2023-02-19T02:40:01.506Z,10.75
2023-02-19T02:42:28.715Z,10.02
2023-02-19T02:45:18.265Z,11.63
2023-02-19T02:47:48.542Z,10.60
2023-02-19T02:50:25.288Z,12.63
2023-02-19T02:53:13.438Z,11.20
2023-02-19T02:55:44.173Z,11.27
2023-02-19T02:58:12.454Z,14.03
2023-02-19T03:00:59.029Z,11.45
2023-02-19T03:03:28.009Z,14.80
2023-02-19T03:05:58.983Z,16.13
2023-02-19T03:08:31.963Z,14.38
2023-02-19T03:11:24.812Z,14.93
2023-02-19T03:14:33.640Z,7.95
2023-02-19T03:17:21.785Z,12.27
2023-02-19T03:19:51.507Z,14.60
2023-02-19T03:22:21.099Z,16.77
2023-02-19T03:25:11.236Z,13.20
2023-02-19T03:27:39.772Z,12.40
2023-02-19T03:30:11.149Z,9.60
2023-02-19T03:32:43.705Z,13.57
2023-02-19T03:35:14.212Z,15.57
2023-02-19T03:37:51.228Z,10.20
2023-02-19T03:40:18.496Z,11.68
2023-02-19T03:43:02.457Z,11.95
2023-02-19T03:45:29.619Z,9.20
2023-02-19T03:48:14.955Z,15.80
2023-02-19T03:50:57.686Z,10.13
2023-02-19T03:53:30.676Z,13.15
2023-02-19T03:56:00.880Z,8.82
2023-02-19T03:58:46.667Z,11.52
2023-02-19T04:01:20.769Z,11.52
2023-02-19T04:03:51.804Z,7.13
2023-02-19T04:06:23.178Z,13.65
2023-02-19T04:08:53.253Z,12.50
2023-02-19T04:11:20.965Z,11.57
2023-02-19T04:13:59.942Z,12.55
2023-02-19T04:16:29.003Z,14.90
2023-02-19T04:18:59.294Z,13.35
2023-02-19T04:21:27.402Z,9.23
2023-02-19T04:23:54.605Z,16.92
2023-02-19T04:26:22.620Z,14.13
2023-02-19T04:28:49.764Z,12.83
2023-02-19T04:31:16.997Z,14.40
2023-02-19T04:33:44.299Z,11.23
2023-02-19T04:36:12.291Z,14.60
2023-02-19T04:38:39.483Z,11.82
2023-02-19T04:41:06.710Z,14.90
2023-02-19T04:43:33.889Z,11.80
2023-02-19T04:46:02.271Z,12.23
2023-02-19T04:48:29.797Z,12.13
2023-02-19T04:50:57.070Z,11.25
2023-02-19T04:53:24.271Z,11.43
2023-02-19T04:55:53.353Z,12.73
2023-02-19T04:58:21.166Z,12.73
2023-02-19T05:00:51.909Z,15.48
2023-02-19T05:03:19.034Z,9.85
2023-02-19T05:05:46.227Z,12.07
2023-02-19T05:08:13.432Z,12.60
2023-02-19T05:10:40.668Z,13.82
2023-02-19T05:13:07.837Z,14.35
2023-02-19T05:15:35.013Z,11.57
2023-02-19T05:18:02.192Z,13.33
2023-02-19T05:20:29.381Z,8.15
2023-02-19T05:22:56.514Z,13.15
2023-02-19T05:25:23.708Z,8.82
2023-02-19T05:28:10.849Z,8.63
2023-02-19T05:30:37.995Z,13.20
2023-02-19T05:33:05.171Z,10.40
2023-02-19T05:35:32.334Z,10.57
2023-02-19T05:37:59.461Z,10.98
2023-02-19T05:40:26.636Z,17.23
2023-02-19T05:42:53.868Z,7.47
2023-02-19T05:45:21.079Z,9.38
2023-02-19T05:47:48.281Z,9.75
2023-02-19T05:50:15.438Z,11.07
2023-02-19T05:52:43.588Z,12.77
2023-02-19T05:55:11.447Z,13.67
2023-02-19T05:57:43.764Z,11.52
2023-02-19T06:00:12.205Z,12.30
2023-02-19T06:02:39.459Z,12.77
2023-02-19T06:05:07.270Z,11.82
2023-02-19T06:07:34.902Z,8.83
2023-02-19T06:10:02.248Z,11.75
2023-02-19T06:12:29.425Z,9.35
2023-02-19T06:14:56.614Z,11.98
2023-02-19T06:17:23.744Z,13.30
2023-02-19T06:19:50.873Z,13.33
2023-02-19T06:22:18.010Z,10.48
2023-02-19T06:24:45.212Z,14.70
2023-02-19T06:27:12.450Z,11.13
2023-02-19T06:29:39.677Z,10.05
2023-02-19T06:32:07.502Z,11.13
2023-02-19T06:34:35.185Z,9.93
2023-02-19T06:37:02.709Z,7.90
2023-02-19T06:39:29.865Z,11.13
2023-02-19T06:41:57.413Z,10.15
2023-02-19T06:44:25.097Z,11.80
2023-02-19T06:46:52.562Z,13.93
2023-02-19T06:49:19.678Z,10.65
2023-02-19T06:51:47.279Z,12.95
2023-02-19T06:54:14.480Z,11.40
2023-02-19T06:56:42.350Z,11.23
2023-02-19T06:59:11.255Z,11.45
2023-02-19T07:01:39.254Z,11.02
2023-02-19T07:04:07.570Z,14.65
2023-02-19T07:06:35.484Z,12.02
2023-02-19T07:09:03.459Z,14.83
2023-02-19T07:11:31.808Z,12.13
2023-02-19T07:13:59.664Z,14.52
2023-02-19T07:16:26.798Z,11.48
2023-02-19T07:18:54.255Z,14.68
2023-02-19T07:21:21.487Z,16.43
2023-02-19T07:23:48.583Z,13.93
2023-02-19T07:26:17.179Z,15.27
2023-02-19T07:28:45.252Z,14.82
2023-02-19T07:31:13.720Z,14.77
2023-02-19T07:33:43.462Z,16.50
2023-02-19T07:36:10.767Z,17.02
2023-02-19T07:38:38.020Z,10.07
2023-02-19T07:41:06.019Z,11.70
2023-02-19T07:43:34.472Z,21.40
2023-02-19T07:46:05.468Z,13.00
2023-02-19T07:48:34.075Z,11.07
2023-02-19T07:51:01.864Z,15.82
2023-02-19T07:53:29.226Z,12.65
2023-02-19T07:56:01.177Z,12.90
2023-02-19T07:58:28.627Z,9.77
2023-02-19T08:00:55.999Z,15.95
2023-02-19T08:03:23.378Z,15.48
2023-02-19T08:05:51.499Z,18.73
2023-02-19T08:08:18.734Z,13.57
2023-02-19T08:11:04.433Z,13.33
2023-02-19T08:13:31.919Z,13.73
2023-02-19T08:16:16.927Z,15.25
2023-02-19T08:18:48.266Z,13.35
2023-02-19T08:21:18.291Z,13.73
2023-02-19T08:23:46.522Z,13.40
2023-02-19T08:26:13.771Z,9.57
2023-02-19T08:28:40.953Z,10.68
2023-02-19T08:31:09.917Z,10.68
2023-02-19T08:33:37.741Z,10.32
2023-02-19T08:36:06.072Z,16.17
2023-02-19T08:38:35.808Z,12.85
2023-02-19T08:41:10.835Z,11.35
2023-02-19T08:43:38.232Z,12.05
2023-02-19T08:46:07.073Z,11.95
2023-02-19T08:48:34.433Z,13.97
2023-02-19T08:51:03.918Z,13.20
2023-02-19T08:53:32.491Z,15.82
2023-02-19T08:56:00.042Z,16.75
2023-02-19T08:58:27.611Z,11.63
2023-02-19T09:00:55.173Z,14.10
2023-02-19T09:03:22.536Z,13.85
2023-02-19T09:05:49.882Z,19.20
2023-02-19T09:08:18.388Z,13.48
2023-02-19T09:10:46.794Z,13.18
2023-02-19T09:13:15.194Z,14.30
2023-02-19T09:15:43.352Z,15.65
2023-02-19T09:18:18.728Z,15.05
2023-02-19T09:20:46.866Z,13.98
2023-02-19T09:23:15.213Z,12.77
2023-02-19T09:25:43.523Z,11.50
2023-02-19T09:28:11.953Z,11.07
2023-02-19T09:30:40.300Z,9.88
2023-02-19T09:33:08.574Z,13.38
2023-02-19T09:35:39.159Z,11.38
2023-02-19T09:38:07.147Z,13.13
2023-02-19T09:40:36.476Z,14.00
2023-02-19T09:43:06.928Z,15.93
2023-02-19T09:45:35.785Z,10.95
2023-02-19T09:48:04.702Z,14.65
2023-02-19T09:50:35.302Z,9.33
2023-02-19T09:53:04.682Z,15.07
2023-02-19T09:55:39.728Z,11.40
2023-02-19T09:58:28.357Z,10.43
2023-02-19T10:00:57.152Z,8.88
2023-02-19T10:03:36.516Z,9.60
2023-02-19T10:06:24.181Z,9.85
2023-02-19T10:08:57.644Z,7.22
2023-02-19T10:11:27.242Z,8.05
2023-02-19T10:13:57.321Z,9.98
2023-02-19T10:16:28.763Z,7.00
2023-02-19T10:18:56.861Z,8.63
2023-02-19T10:21:25.553Z,6.68
2023-02-19T10:23:55.284Z,9.00
2023-02-19T10:26:24.138Z,8.70
2023-02-19T10:28:52.052Z,9.00
2023-02-19T10:31:21.303Z,14.05
2023-02-19T10:33:53.307Z,13.32
2023-02-19T10:36:31.750Z,10.50
2023-02-19T10:39:00.832Z,12.52
2023-02-19T10:41:28.761Z,10.30
2023-02-19T10:44:07.744Z,12.38
2023-02-19T10:46:42.940Z,11.98
2023-02-19T10:49:24.719Z,10.50
2023-02-19T10:51:53.204Z,9.02
2023-02-19T10:54:25.209Z,8.77
2023-02-19T10:56:52.543Z,7.40
2023-02-19T10:59:20.177Z,8.65
2023-02-19T11:02:04.263Z,9.63
2023-02-19T11:04:35.529Z,6.10
2023-02-19T11:07:16.212Z,10.50
2023-02-19T11:09:48.406Z,8.98
2023-02-19T11:12:23.675Z,7.47
2023-02-19T11:14:51.450Z,10.38
2023-02-19T11:17:30.480Z,6.85
2023-02-19T11:19:59.366Z,5.50
2023-02-19T11:22:32.967Z,7.70
2023-02-19T11:25:17.305Z,5.63
2023-02-19T11:28:14.143Z,8.00
2023-02-19T11:30:43.094Z,6.80
2023-02-19T11:33:22.567Z,5.93
2023-02-19T11:35:51.332Z,9.52
2023-02-19T11:38:21.807Z,10.15
2023-02-19T11:40:53.733Z,10.52
2023-02-19T11:43:24.166Z,9.30
2023-02-19T11:45:57.969Z,10.37
2023-02-19T11:48:30.200Z,8.80
2023-02-19T11:50:58.185Z,10.30
2023-02-19T11:53:29.846Z,6.25
2023-02-19T11:56:03.849Z,8.30
2023-02-19T11:58:40.749Z,7.00
2023-02-19T12:01:23.675Z,7.25
2023-02-19T12:03:58.530Z,7.70
2023-02-19T12:06:44.602Z,8.07
2023-02-19T12:09:12.834Z,7.15
2023-02-19T12:11:40.464Z,9.20
2023-02-19T12:14:13.787Z,6.75
2023-02-19T12:17:02.442Z,7.85
2023-02-19T12:19:59.006Z,7.88
2023-02-19T12:22:28.489Z,9.10
2023-02-19T12:25:07.291Z,5.63
2023-02-19T12:27:49.953Z,6.05
2023-02-19T12:30:27.697Z,4.18
2023-02-19T12:33:13.284Z,4.28
2023-02-19T12:35:43.264Z,7.00
2023-02-19T12:38:22.564Z,35.47
2023-02-19T12:40:49.707Z,14.98
2023-02-19T12:43:19.166Z,7.50
2023-02-19T12:45:53.178Z,11.45
2023-02-19T12:48:23.591Z,10.65
2023-02-19T12:50:55.270Z,11.77
2023-02-19T12:53:25.201Z,8.75
2023-02-19T12:55:53.466Z,5.80
2023-02-19T12:58:32.863Z,5.65
2023-02-19T13:01:00.266Z,19.48
2023-02-19T13:03:31.277Z,8.80
2023-02-19T13:06:03.359Z,9.85
2023-02-19T13:08:42.078Z,7.22
2023-02-19T13:11:18.369Z,7.30
2023-02-19T13:13:50.384Z,12.90
2023-02-19T13:16:19.523Z,6.97
2023-02-19T13:18:48.523Z,25.20
2023-02-19T13:21:36.941Z,12.55
2023-02-19T13:24:10.158Z,13.43
2023-02-19T13:27:10.678Z,8.55
2023-02-19T13:29:56.546Z,18.43
2023-02-19T13:32:52.209Z,13.15
2023-02-19T13:35:46.556Z,10.27
2023-02-19T13:38:18.526Z,10.82
2023-02-19T13:41:01.342Z,16.73
2023-02-19T13:43:32.115Z,50.93
2023-02-19T13:46:02.123Z,15.35
2023-02-19T13:48:33.923Z,32.03
2023-02-19T13:51:13.536Z,67.00
2023-02-19T13:53:44.739Z,28.60
2023-02-19T13:56:31.220Z,13.97
2023-02-19T13:58:58.370Z,10.52
2023-02-19T14:01:57.663Z,17.25
2023-02-19T14:04:43.824Z,30.05
2023-02-19T14:07:11.000Z,45.65
2023-02-19T14:09:40.940Z,15.27
2023-02-19T14:12:09.678Z,14.25
2023-02-19T14:14:39.870Z,75.72
2023-02-19T14:17:10.208Z,28.33
2023-02-19T14:19:43.609Z,62.25
2023-02-19T14:22:30.596Z,47.03
2023-02-19T14:24:58.476Z,20.13
2023-02-19T14:27:26.224Z,7.57
2023-02-19T14:29:53.599Z,14.80
2023-02-19T14:32:20.920Z,9.23
2023-02-19T14:34:48.388Z,11.73
2023-02-19T14:37:20.451Z,7.43
2023-02-19T14:39:48.042Z,13.68
2023-02-19T14:42:18.209Z,8.35
2023-02-19T14:44:51.216Z,7.35
2023-02-19T14:47:20.197Z,6.97
2023-02-19T14:50:00.013Z,6.22
2023-02-19T14:52:45.760Z,6.53
2023-02-19T14:55:54.212Z,6.35
2023-02-19T14:58:27.039Z,7.35
2023-02-19T15:00:54.247Z,7.43
2023-02-19T15:03:37.830Z,11.55
2023-02-19T15:06:09.395Z,8.98
2023-02-19T15:08:38.514Z,7.97
2023-02-19T15:11:09.720Z,5.88
2023-02-19T15:13:37.333Z,5.50
2023-02-19T15:16:04.706Z,6.30
2023-02-19T15:18:36.158Z,5.13
2023-02-19T15:21:04.666Z,7.65
2023-02-19T15:23:33.331Z,5.85
2023-02-19T15:26:00.421Z,6.30
2023-02-19T15:28:27.471Z,3.75
2023-02-19T15:31:00.374Z,15.43
2023-02-19T15:33:28.252Z,16.35
2023-02-19T15:35:56.904Z,5.80
2023-02-19T15:38:24.458Z,3.70
2023-02-19T15:40:51.765Z,6.47
2023-02-19T15:43:25.941Z,11.07
2023-02-19T15:45:54.735Z,14.57
2023-02-19T15:48:24.674Z,7.88
2023-02-19T15:50:55.715Z,11.73
2023-02-19T15:53:24.725Z,5.80
2023-02-19T15:56:01.290Z,7.57
2023-02-19T15:58:35.798Z,5.93
2023-02-19T16:01:25.347Z,4.60
2023-02-19T16:03:56.569Z,3.33
2023-02-19T16:06:24.512Z,3.45
2023-02-19T16:09:07.122Z,3.72
2023-02-19T16:11:38.778Z,5.75
2023-02-19T16:14:24.875Z,22.00
2023-02-19T16:16:56.504Z,31.20
2023-02-19T16:19:28.638Z,18.88
2023-02-19T16:21:56.052Z,17.98
2023-02-19T16:24:23.206Z,9.45
2023-02-19T16:26:50.856Z,8.65
2023-02-19T16:29:26.501Z,8.68
2023-02-19T16:31:55.730Z,9.38
2023-02-19T16:34:41.620Z,11.55
2023-02-19T16:37:27.591Z,6.60
2023-02-19T16:40:06.310Z,9.02
2023-02-19T16:42:33.751Z,20.85
2023-02-19T16:45:00.867Z,21.60
2023-02-19T16:47:35.570Z,27.30
2023-02-19T16:50:03.325Z,50.17
2023-02-19T16:52:31.082Z,21.08
2023-02-19T16:54:58.257Z,15.25
2023-02-19T16:57:25.482Z,23.45
2023-02-19T16:59:52.537Z,20.13
2023-02-19T17:02:21.229Z,21.33
2023-02-19T17:04:49.323Z,38.47
2023-02-19T17:07:17.053Z,33.17
2023-02-19T17:09:44.222Z,32.65
2023-02-19T17:12:12.167Z,14.68
2023-02-19T17:14:39.324Z,9.02
2023-02-19T17:17:06.522Z,4.55
2023-02-19T17:19:33.819Z,5.20
2023-02-19T17:22:01.007Z,3.33
2023-02-19T17:24:28.409Z,3.10
2023-02-19T17:26:55.580Z,3.58
2023-02-19T17:29:22.711Z,3.33
2023-02-19T17:31:49.941Z,3.10
2023-02-19T17:34:17.157Z,3.42
2023-02-19T17:36:45.520Z,2.17
2023-02-19T17:39:15.157Z,2.78
2023-02-19T17:41:42.656Z,4.28
2023-02-19T17:44:09.948Z,3.08
2023-02-19T17:46:37.378Z,4.90
2023-02-19T17:49:04.615Z,5.15
2023-02-19T17:51:31.818Z,5.80
2023-02-19T17:53:59.023Z,4.35
2023-02-19T17:56:26.918Z,3.95
2023-02-19T17:58:54.989Z,3.30
2023-02-19T18:01:22.848Z,5.45
2023-02-19T18:03:50.167Z,3.70
2023-02-19T18:06:17.633Z,3.95
2023-02-19T18:08:49.172Z,4.15
2023-02-19T18:11:17.028Z,4.28
2023-02-19T18:13:44.240Z,4.93
2023-02-19T18:16:11.572Z,3.38
2023-02-19T18:18:38.735Z,4.03
2023-02-19T18:21:08.993Z,4.55
2023-02-19T18:23:36.413Z,4.80
2023-02-19T18:26:03.940Z,6.00
2023-02-19T18:28:31.081Z,3.25
2023-02-19T18:30:58.267Z,5.05
2023-02-19T18:33:25.463Z,4.75
2023-02-19T18:35:52.728Z,5.00
2023-02-19T18:38:20.129Z,7.50
2023-02-19T18:40:47.549Z,7.30
2023-02-19T18:43:14.785Z,5.85
2023-02-19T18:45:43.424Z,4.78
2023-02-19T18:48:10.905Z,5.03
2023-02-19T18:50:38.150Z,3.50
2023-02-19T18:53:05.362Z,3.40
2023-02-19T18:55:32.552Z,5.00
2023-02-19T18:57:59.693Z,3.97
2023-02-19T19:00:27.025Z,4.25
2023-02-19T19:02:58.419Z,5.65
2023-02-19T19:05:25.672Z,5.00
2023-02-19T19:07:54.051Z,5.40
2023-02-19T19:10:21.299Z,5.80
2023-02-19T19:12:48.809Z,5.63
2023-02-19T19:15:24.114Z,6.35
2023-02-19T19:17:51.748Z,6.50
2023-02-19T19:20:20.100Z,3.97
2023-02-19T19:22:49.904Z,4.57
2023-02-19T19:25:17.149Z,4.97
2023-02-19T19:27:44.292Z,4.00
2023-02-19T19:30:11.657Z,4.47
2023-02-19T19:32:39.137Z,4.93
2023-02-19T19:35:06.283Z,4.65
2023-02-19T19:37:33.486Z,5.63
2023-02-19T19:40:00.664Z,4.07
2023-02-19T19:42:27.722Z,4.88
2023-02-19T19:44:56.042Z,4.55
2023-02-19T19:47:23.213Z,4.20
2023-02-19T19:49:50.334Z,4.88
2023-02-19T19:52:17.483Z,5.63
2023-02-19T19:54:44.818Z,4.38
2023-02-19T19:57:12.062Z,5.18
2023-02-19T19:59:39.545Z,6.45
2023-02-19T20:02:07.575Z,6.35
2023-02-19T20:04:34.772Z,5.50
2023-02-19T20:07:02.217Z,7.72
2023-02-19T20:09:29.574Z,6.10
2023-02-19T20:11:57.215Z,6.60
2023-02-19T20:14:25.095Z,9.45
2023-02-19T20:16:52.832Z,8.73
2023-02-19T20:19:20.400Z,8.23
2023-02-19T20:21:48.047Z,6.88
2023-02-19T20:24:19.409Z,7.95
2023-02-19T20:26:46.569Z,9.68
2023-02-19T20:29:13.743Z,11.88
2023-02-19T20:31:40.970Z,11.15
2023-02-19T20:34:08.146Z,9.88
2023-02-19T20:36:42.292Z,9.82
2023-02-19T20:39:09.360Z,8.80
2023-02-19T20:41:36.460Z,8.38
2023-02-19T20:44:03.771Z,8.98
2023-02-19T20:46:30.896Z,7.50
2023-02-19T20:48:58.071Z,8.23
2023-02-19T20:51:25.197Z,9.30
2023-02-19T20:53:52.288Z,10.27
2023-02-19T20:56:19.330Z,8.77
2023-02-19T20:58:46.441Z,8.93
2023-02-19T21:01:13.609Z,8.48
2023-02-19T21:03:40.738Z,8.57
2023-02-19T21:06:08.016Z,8.77
2023-02-19T21:08:35.468Z,7.68
2023-02-19T21:11:02.542Z,11.43
2023-02-19T21:13:30.347Z,7.38
2023-02-19T21:15:57.534Z,8.27
2023-02-19T21:18:24.703Z,9.18
2023-02-19T21:20:51.772Z,8.05
2023-02-19T21:23:18.846Z,8.10
2023-02-19T21:25:46.049Z,6.68
2023-02-19T21:28:13.120Z,8.27
2023-02-19T21:30:40.298Z,7.07
2023-02-19T21:33:07.388Z,8.52
2023-02-19T21:35:34.495Z,7.90
2023-02-19T21:38:02.301Z,7.65
2023-02-19T21:40:31.981Z,5.95
2023-02-19T21:42:59.364Z,7.50
2023-02-19T21:45:26.619Z,7.53
2023-02-19T21:47:54.970Z,8.07
2023-02-19T21:50:22.518Z,7.95
2023-02-19T21:52:49.936Z,10.00
2023-02-19T21:55:17.166Z,8.73
2023-02-19T21:57:44.312Z,8.38
2023-02-19T22:00:11.708Z,7.85
2023-02-19T22:02:38.923Z,8.25
2023-02-19T22:05:06.241Z,9.73
2023-02-19T22:07:33.363Z,9.50
2023-02-19T22:10:00.605Z,9.10
2023-02-19T22:12:27.714Z,10.05
2023-02-19T22:14:54.801Z,9.15
2023-02-19T22:17:22.068Z,9.48
2023-02-19T22:19:49.213Z,10.90
2023-02-19T22:22:16.396Z,11.20
2023-02-19T22:24:43.673Z,9.00
2023-02-19T22:27:10.809Z,8.93
2023-02-19T22:29:37.996Z,11.57
2023-02-19T22:32:05.326Z,10.75
2023-02-19T22:34:32.575Z,9.43
2023-02-19T22:36:59.684Z,12.35
2023-02-19T22:39:27.329Z,9.75
2023-02-19T22:41:54.962Z,10.25
2023-02-19T22:44:22.161Z,11.60
2023-02-19T22:46:51.002Z,13.13
2023-02-19T22:49:18.614Z,10.77
2023-02-19T22:52:05.151Z,11.40
2023-02-19T22:54:32.235Z,11.70
2023-02-19T22:56:59.367Z,11.88
2023-02-19T22:59:26.623Z,13.65
2023-02-19T23:01:54.101Z,13.38
2023-02-19T23:04:24.852Z,15.75
2023-02-19T23:06:52.290Z,14.68
2023-02-19T23:09:25.457Z,15.95
2023-02-19T23:11:52.900Z,14.38
2023-02-19T23:14:21.226Z,17.40
2023-02-19T23:16:48.623Z,15.70
2023-02-19T23:19:16.643Z,14.15
2023-02-19T23:21:44.879Z,15.80
2023-02-19T23:24:12.441Z,16.65
2023-02-19T23:26:43.576Z,17.58
2023-02-19T23:29:10.923Z,18.08
2023-02-19T23:31:38.376Z,18.67
2023-02-19T23:34:08.013Z,15.60
2023-02-19T23:36:40.288Z,19.38
2023-02-19T23:39:07.690Z,19.90
2023-02-19T23:41:34.869Z,19.60
2023-02-19T23:44:01.939Z,15.93
2023-02-19T23:46:29.326Z,20.63
2023-02-19T23:48:56.460Z,21.75
2023-02-19T23:51:24.683Z,18.17
2023-02-19T23:53:51.845Z,19.73
2023-02-19T23:56:25.428Z,19.15
2023-02-19T23:58:52.555Z,20.58
